St Solene — FVDG — position and weather

sailwx.info

Track history (hours):
 
Tides and Currents Weather Stations Pressure Air Temp Water Temp Dewpoint Dewpoint Depression Visibility Wind Speed Wind Dir Waves Ship Positions

St Solene

Last reported at 2018-May-28 01:30 UTC. Time now 2018-May-28 01:43 UTC.
Position N 43°25' E 004°55'.

Length 104 m; draft 6.5 m.

Type: Tanker. MMSI: 226302000.

Date/timePositionNaut miles runAvg speedWind from/ knotsBaromVisibWave heightAir tempDewpointWater temp
2018-May-28 01:30N 43°25' E 004°55'0 0.0
2018-May-28 00:57N 43°25' E 004°55'0 0.0
2018-May-28 00:30N 43°25' E 004°55'0 0.1
2018-May-27 23:57N 43°24' E 004°55'0 0.0
2018-May-27 23:27N 43°24' E 004°55'0 0.0
2018-May-27 23:00N 43°24' E 004°55'0 0.0
2018-May-27 22:27N 43°24' E 004°55'0 0.0
2018-May-27 22:00N 43°24' E 004°55'0 0.0
2018-May-27 21:30N 43°24' E 004°55'0 0.0
2018-May-27 21:00N 43°24' E 004°55'0 0.1
2018-May-27 20:27N 43°25' E 004°55'0 0.0
2018-May-27 19:57N 43°25' E 004°55'0 0.0
2018-May-27 19:30N 43°25' E 004°55'0 0.0
2018-May-27 19:00N 43°25' E 004°55'0 0.0
2018-May-27 18:30N 43°25' E 004°55'0 0.0
2018-May-27 18:00N 43°25' E 004°55'0 0.1
2018-May-27 17:27N 43°25' E 004°55'0 0.1
2018-May-27 17:00N 43°25' E 004°55'4 7.5
2018-May-27 16:30N 43°22' E 004°58'510.1
2018-May-27 15:59N 43°17' E 005°01'611.1
2018-May-27 15:28N 43°11' E 005°01'611.9
2018-May-27 14:57N 43°07' E 004°54'512.0
2018-May-27 14:30N 43°07' E 004°47'612.0
2018-May-27 14:00N 43°06' E 004°39'12 0.4
2018-May-26 03:51N 43°05' E 004°22'411.3
2018-May-26 03:29N 43°05' E 004°27'711.1
2018-May-26 02:51N 43°06' E 004°37'410.9
2018-May-26 02:30N 43°06' E 004°42'611.1
2018-May-26 02:00N 43°07' E 004°49'11 9.4
2018-May-26 00:50N 43°15' E 004°60'411.3
2018-May-26 00:30N 43°19' E 004°59'5 9.5
2018-May-26 00:00N 43°23' E 004°59'1 1.4
2018-May-25 23:30N 43°24' E 004°60'0 0.0
2018-May-25 23:00N 43°24' E 004°60'0 0.0
2018-May-25 22:28N 43°24' E 004°60'0 0.0
2018-May-25 21:58N 43°24' E 004°60'0 0.0
2018-May-25 21:22N 43°24' E 004°60'0 0.0
2018-May-25 20:58N 43°24' E 004°60'0 0.0
2018-May-25 20:28N 43°24' E 004°60'0 0.0
2018-May-25 19:58N 43°24' E 004°60'0 0.0
2018-May-25 19:28N 43°24' E 004°60'0 0.0
2018-May-25 18:58N 43°24' E 004°60'0 0.0
2018-May-25 18:28N 43°24' E 004°60'0 0.0
2018-May-25 17:58N 43°24' E 004°60'0 0.0
2018-May-25 17:28N 43°24' E 004°60'0 0.0
2018-May-25 16:55N 43°24' E 004°60'0 0.0
2018-May-25 16:28N 43°24' E 004°60'0 0.0
2018-May-25 15:58N 43°24' E 004°60'0 0.0
2018-May-25 15:28N 43°24' E 004°60'0 0.0
2018-May-25 14:58N 43°24' E 004°60'0 0.0
2018-May-25 14:28N 43°24' E 004°60'0 0.0
2018-May-25 13:58N 43°24' E 004°60'0 0.0
2018-May-25 13:28N 43°24' E 004°60'0 0.0
2018-May-25 13:00N 43°24' E 004°60'0 0.0
2018-May-25 12:26N 43°24' E 004°60'0 0.0
2018-May-25 11:59N 43°24' E 004°60'0 0.0
2018-May-25 11:26N 43°24' E 004°60'0 0.0
2018-May-25 10:59N 43°24' E 004°60'0 0.0
2018-May-25 10:26N 43°24' E 004°60'0 0.0
2018-May-25 09:59N 43°24' E 004°60'0 0.0
2018-May-25 09:29N 43°24' E 004°60'0 0.0
2018-May-25 08:53N 43°24' E 004°60'0 0.0
2018-May-25 08:29N 43°24' E 004°60'0 0.0
2018-May-25 07:59N 43°24' E 004°60'0 0.0
2018-May-25 07:29N 43°24' E 004°60'0 0.0
2018-May-25 06:59N 43°24' E 004°60'0 0.0
2018-May-25 06:29N 43°24' E 004°60'0 0.0
2018-May-25 05:59N 43°24' E 004°60'0 0.0
2018-May-25 05:26N 43°24' E 004°60'0 0.0
2018-May-25 04:56N 43°24' E 004°60'0 0.0
2018-May-25 04:26N 43°24' E 004°60'0 0.0
2018-May-25 03:56N 43°24' E 004°60'0 0.0
2018-May-25 03:29N 43°24' E 004°60'0 0.0
2018-May-25 02:53N 43°24' E 004°60'0 0.0
2018-May-25 02:29N 43°24' E 004°60'0 0.0
2018-May-25 01:59N 43°24' E 004°60'0 0.0
2018-May-25 01:26N 43°24' E 004°60'0 0.0
2018-May-25 00:59N 43°24' E 004°60'0 0.0
2018-May-25 00:29N 43°24' E 004°60'0 0.0
2018-May-24 23:59N 43°24' E 004°60'0 0.0
2018-May-24 23:26N 43°24' E 004°60'0 0.0
2018-May-24 22:56N 43°24' E 004°60'0 0.0
2018-May-24 22:26N 43°24' E 004°60'0 0.0
2018-May-24 21:59N 43°24' E 004°60'0 0.0
2018-May-24 21:29N 43°24' E 004°60'0 0.0
2018-May-24 20:56N 43°24' E 004°60'0 0.0
2018-May-24 20:26N 43°24' E 004°60'0 0.0
2018-May-24 19:59N 43°24' E 004°60'0 0.0
2018-May-24 19:20N 43°24' E 004°60'0 0.0
2018-May-24 18:59N 43°24' E 004°60'0 0.7
2018-May-24 18:31N 43°24' E 004°59'3 5.2
2018-May-24 17:59N 43°24' E 004°56'0 0.1
2018-May-24 17:16N 43°24' E 004°56'0 0.0
2018-May-24 16:58N 43°24' E 004°56'0 0.0
2018-May-24 16:28N 43°24' E 004°56'0 0.0
2018-May-24 16:00N 43°24' E 004°56'0 0.0
2018-May-24 15:30N 43°24' E 004°56'0 0.0
2018-May-24 14:57N 43°24' E 004°56'0 0.0
2018-May-24 14:30N 43°24' E 004°56'0 0.0
2018-May-24 14:00N 43°24' E 004°56'0 0.0
2018-May-24 13:30N 43°24' E 004°56'0 0.0
2018-May-24 08:57N 43°24' E 004°56'0 0.0
2018-May-24 08:30N 43°24' E 004°56'0 0.0
2018-May-24 08:00N 43°24' E 004°56'0 0.0
2018-May-24 07:30N 43°24' E 004°56'0 0.0
2018-May-24 07:00N 43°24' E 004°56'0 0.0
2018-May-24 06:30N 43°24' E 004°56'0 0.0
2018-May-24 06:00N 43°24' E 004°56'0 0.0
2018-May-24 05:29N 43°24' E 004°56'0 0.0
2018-May-24 04:47N 43°24' E 004°56'0 0.0
2018-May-24 04:28N 43°24' E 004°56'0 0.0
2018-May-24 03:58N 43°24' E 004°55'0 0.0
2018-May-24 03:30N 43°24' E 004°55'0 0.0
2018-May-24 03:00N 43°24' E 004°55'0 0.0
2018-May-24 02:30N 43°24' E 004°55'0 0.0
2018-May-24 02:00N 43°24' E 004°55'0 0.0
2018-May-24 01:30N 43°24' E 004°55'0 0.0
2018-May-24 00:59N 43°24' E 004°55'0 0.0
2018-May-24 00:29N 43°24' E 004°55'0 0.0
2018-May-23 23:59N 43°24' E 004°55'0 0.0
2018-May-23 23:29N 43°24' E 004°55'0 0.1
2018-May-23 23:00N 43°24' E 004°56'0 0.0
2018-May-23 22:29N 43°24' E 004°56'0 0.0
2018-May-23 22:00N 43°24' E 004°56'0 0.0
2018-May-23 21:29N 43°24' E 004°56'0 0.0
2018-May-23 20:58N 43°24' E 004°56'0 0.1
2018-May-23 20:30N 43°24' E 004°56'0 0.0
2018-May-23 19:57N 43°24' E 004°56'0 0.1
2018-May-23 19:30N 43°24' E 004°56'0 0.0
2018-May-23 18:57N 43°24' E 004°56'0 0.0
2018-May-23 18:30N 43°24' E 004°56'0 0.1
2018-May-23 18:00N 43°24' E 004°56'0 0.0
2018-May-23 17:30N 43°24' E 004°56'0 0.0
2018-May-23 17:00N 43°24' E 004°56'0 0.0
2018-May-23 16:26N 43°24' E 004°56'0 0.0
2018-May-23 15:59N 43°24' E 004°56'0 0.1
2018-May-23 15:29N 43°24' E 004°56'0 0.1
2018-May-23 14:59N 43°24' E 004°56'0 0.0
2018-May-23 14:29N 43°24' E 004°56'0 0.0
2018-May-23 13:58N 43°24' E 004°56'0 0.0
2018-May-23 13:28N 43°24' E 004°56'0 0.0
2018-May-23 13:00N 43°24' E 004°56'0 0.0
2018-May-23 12:28N 43°24' E 004°56'0 0.0
2018-May-23 11:58N 43°24' E 004°56'0 0.0
2018-May-23 11:30N 43°24' E 004°56'0 0.0
2018-May-23 11:00N 43°24' E 004°56'0 0.0
2018-May-23 10:30N 43°24' E 004°56'0 0.0
2018-May-23 10:01N 43°24' E 004°56'0 0.0
2018-May-23 09:30N 43°24' E 004°56'0 0.0
2018-May-23 08:54N 43°24' E 004°55'0 0.0
2018-May-23 08:30N 43°24' E 004°55'0 0.0
2018-May-23 08:00N 43°24' E 004°55'0 0.0
2018-May-23 07:30N 43°24' E 004°55'0 0.0
2018-May-23 07:00N 43°24' E 004°55'0 0.0
2018-May-23 06:30N 43°24' E 004°55'0 0.0
2018-May-23 05:57N 43°24' E 004°55'0 0.0
2018-May-23 05:30N 43°24' E 004°55'0 0.0
2018-May-23 05:00N 43°24' E 004°55'0 0.0
2018-May-23 04:30N 43°24' E 004°55'0 0.0
2018-May-23 04:00N 43°24' E 004°55'0 0.0
2018-May-23 03:30N 43°24' E 004°55'0 0.1
2018-May-23 02:57N 43°24' E 004°55'0 0.1
2018-May-23 02:30N 43°24' E 004°55'0 0.0
2018-May-23 02:00N 43°24' E 004°55'0 0.0
2018-May-23 01:24N 43°24' E 004°55'0 0.0
2018-May-23 01:00N 43°24' E 004°55'0 0.0
2018-May-23 00:27N 43°24' E 004°55'0 0.0
2018-May-23 00:00N 43°24' E 004°55'0 0.0
2018-May-22 23:30N 43°24' E 004°55'0 0.0
2018-May-22 23:00N 43°24' E 004°55'0 0.0
2018-May-22 22:30N 43°24' E 004°55'0 0.0
2018-May-22 22:00N 43°24' E 004°55'0 0.1
2018-May-22 21:27N 43°24' E 004°56'4 8.8
2018-May-22 21:00N 43°21' E 004°58'611.0
2018-May-22 20:30N 43°16' E 005°01'19712.5
2018-May-22 04:49N 43°08' E 009°31'412.0
2018-May-22 04:30N 43°08' E 009°36'712.8
2018-May-22 03:59N 43°01' E 009°39'  
2018-May-19 02:40N 38°44' E 015°25'612.7
2018-May-19 02:13N 38°39' E 015°28'412.4
2018-May-19 01:56N 38°36' E 015°30'612.1
2018-May-19 01:28N 38°31' E 015°34'612.1
2018-May-19 01:00N 38°26' E 015°37'611.9
2018-May-19 00:30N 38°21' E 015°41'5 9.8
2018-May-18 23:59N 38°16' E 015°41'4 8.5
2018-May-18 23:30N 38°14' E 015°37'611.5
2018-May-18 22:59N 38°08' E 015°36'611.2
2018-May-18 22:29N 38°02' E 015°36'611.9
2018-May-18 22:00N 37°56' E 015°36'612.2
2018-May-18 21:29N 37°50' E 015°36'612.5
2018-May-18 20:58N 37°44' E 015°36'612.1
2018-May-18 20:30N 37°38' E 015°36'611.2
2018-May-18 20:00N 37°32' E 015°36'1010.8
2018-May-18 19:07N 37°24' E 015°30'211.6
2018-May-18 18:58N 37°23' E 015°28'  
Track history (hours):
 
Tides and Currents Weather Stations Pressure Air Temp Water Temp Dewpoint Dewpoint Depression Visibility Wind Speed Wind Dir Waves Ship Positions

St Solene

Last reported at 2018-May-28 01:30 UTC. Time now 2018-May-28 01:43 UTC.
Position N 43°25' E 004°55'.

Length 104 m; draft 6.5 m.

Type: Tanker. MMSI: 226302000.

Date/timePositionNaut miles runAvg speedWind from/ knotsBaromVisibWave heightAir tempDewpointWater temp
2018-May-28 01:30N 43°25' E 004°55'0 0.0
2018-May-28 00:57N 43°25' E 004°55'0 0.0
2018-May-28 00:30N 43°25' E 004°55'0 0.1
2018-May-27 23:57N 43°24' E 004°55'0 0.0
2018-May-27 23:27N 43°24' E 004°55'0 0.0
2018-May-27 23:00N 43°24' E 004°55'0 0.0
2018-May-27 22:27N 43°24' E 004°55'0 0.0
2018-May-27 22:00N 43°24' E 004°55'0 0.0
2018-May-27 21:30N 43°24' E 004°55'0 0.0
2018-May-27 21:00N 43°24' E 004°55'0 0.1
2018-May-27 20:27N 43°25' E 004°55'0 0.0
2018-May-27 19:57N 43°25' E 004°55'0 0.0
2018-May-27 19:30N 43°25' E 004°55'0 0.0
2018-May-27 19:00N 43°25' E 004°55'0 0.0
2018-May-27 18:30N 43°25' E 004°55'0 0.0
2018-May-27 18:00N 43°25' E 004°55'0 0.1
2018-May-27 17:27N 43°25' E 004°55'0 0.1
2018-May-27 17:00N 43°25' E 004°55'4 7.5
2018-May-27 16:30N 43°22' E 004°58'510.1
2018-May-27 15:59N 43°17' E 005°01'611.1
2018-May-27 15:28N 43°11' E 005°01'611.9
2018-May-27 14:57N 43°07' E 004°54'512.0
2018-May-27 14:30N 43°07' E 004°47'612.0
2018-May-27 14:00N 43°06' E 004°39'12 0.4
2018-May-26 03:51N 43°05' E 004°22'411.3
2018-May-26 03:29N 43°05' E 004°27'711.1
2018-May-26 02:51N 43°06' E 004°37'410.9
2018-May-26 02:30N 43°06' E 004°42'611.1
2018-May-26 02:00N 43°07' E 004°49'11 9.4
2018-May-26 00:50N 43°15' E 004°60'411.3
2018-May-26 00:30N 43°19' E 004°59'5 9.5
2018-May-26 00:00N 43°23' E 004°59'1 1.4
2018-May-25 23:30N 43°24' E 004°60'0 0.0
2018-May-25 23:00N 43°24' E 004°60'0 0.0
2018-May-25 22:28N 43°24' E 004°60'0 0.0
2018-May-25 21:58N 43°24' E 004°60'0 0.0
2018-May-25 21:22N 43°24' E 004°60'0 0.0
2018-May-25 20:58N 43°24' E 004°60'0 0.0
2018-May-25 20:28N 43°24' E 004°60'0 0.0
2018-May-25 19:58N 43°24' E 004°60'0 0.0
2018-May-25 19:28N 43°24' E 004°60'0 0.0
2018-May-25 18:58N 43°24' E 004°60'0 0.0
2018-May-25 18:28N 43°24' E 004°60'0 0.0
2018-May-25 17:58N 43°24' E 004°60'0 0.0
2018-May-25 17:28N 43°24' E 004°60'0 0.0
2018-May-25 16:55N 43°24' E 004°60'0 0.0
2018-May-25 16:28N 43°24' E 004°60'0 0.0
2018-May-25 15:58N 43°24' E 004°60'0 0.0
2018-May-25 15:28N 43°24' E 004°60'0 0.0
2018-May-25 14:58N 43°24' E 004°60'0 0.0
2018-May-25 14:28N 43°24' E 004°60'0 0.0
2018-May-25 13:58N 43°24' E 004°60'0 0.0
2018-May-25 13:28N 43°24' E 004°60'0 0.0
2018-May-25 13:00N 43°24' E 004°60'0 0.0
2018-May-25 12:26N 43°24' E 004°60'0 0.0
2018-May-25 11:59N 43°24' E 004°60'0 0.0
2018-May-25 11:26N 43°24' E 004°60'0 0.0
2018-May-25 10:59N 43°24' E 004°60'0 0.0
2018-May-25 10:26N 43°24' E 004°60'0 0.0
2018-May-25 09:59N 43°24' E 004°60'0 0.0
2018-May-25 09:29N 43°24' E 004°60'0 0.0
2018-May-25 08:53N 43°24' E 004°60'0 0.0
2018-May-25 08:29N 43°24' E 004°60'0 0.0
2018-May-25 07:59N 43°24' E 004°60'0 0.0
2018-May-25 07:29N 43°24' E 004°60'0 0.0
2018-May-25 06:59N 43°24' E 004°60'0 0.0
2018-May-25 06:29N 43°24' E 004°60'0 0.0
2018-May-25 05:59N 43°24' E 004°60'0 0.0
2018-May-25 05:26N 43°24' E 004°60'0 0.0
2018-May-25 04:56N 43°24' E 004°60'0 0.0
2018-May-25 04:26N 43°24' E 004°60'0 0.0
2018-May-25 03:56N 43°24' E 004°60'0 0.0
2018-May-25 03:29N 43°24' E 004°60'0 0.0
2018-May-25 02:53N 43°24' E 004°60'0 0.0
2018-May-25 02:29N 43°24' E 004°60'0 0.0
2018-May-25 01:59N 43°24' E 004°60'0 0.0
2018-May-25 01:26N 43°24' E 004°60'0 0.0
2018-May-25 00:59N 43°24' E 004°60'0 0.0
2018-May-25 00:29N 43°24' E 004°60'0 0.0
2018-May-24 23:59N 43°24' E 004°60'0 0.0
2018-May-24 23:26N 43°24' E 004°60'0 0.0
2018-May-24 22:56N 43°24' E 004°60'0 0.0
2018-May-24 22:26N 43°24' E 004°60'0 0.0
2018-May-24 21:59N 43°24' E 004°60'0 0.0
2018-May-24 21:29N 43°24' E 004°60'0 0.0
2018-May-24 20:56N 43°24' E 004°60'0 0.0
2018-May-24 20:26N 43°24' E 004°60'0 0.0
2018-May-24 19:59N 43°24' E 004°60'0 0.0
2018-May-24 19:20N 43°24' E 004°60'0 0.0
2018-May-24 18:59N 43°24' E 004°60'0 0.7
2018-May-24 18:31N 43°24' E 004°59'3 5.2
2018-May-24 17:59N 43°24' E 004°56'0 0.1
2018-May-24 17:16N 43°24' E 004°56'0 0.0
2018-May-24 16:58N 43°24' E 004°56'0 0.0
2018-May-24 16:28N 43°24' E 004°56'0 0.0
2018-May-24 16:00N 43°24' E 004°56'0 0.0
2018-May-24 15:30N 43°24' E 004°56'0 0.0
2018-May-24 14:57N 43°24' E 004°56'0 0.0
2018-May-24 14:30N 43°24' E 004°56'0 0.0
2018-May-24 14:00N 43°24' E 004°56'0 0.0
2018-May-24 13:30N 43°24' E 004°56'0 0.0
2018-May-24 08:57N 43°24' E 004°56'0 0.0
2018-May-24 08:30N 43°24' E 004°56'0 0.0
2018-May-24 08:00N 43°24' E 004°56'0 0.0
2018-May-24 07:30N 43°24' E 004°56'0 0.0
2018-May-24 07:00N 43°24' E 004°56'0 0.0
2018-May-24 06:30N 43°24' E 004°56'0 0.0
2018-May-24 06:00N 43°24' E 004°56'0 0.0
2018-May-24 05:29N 43°24' E 004°56'0 0.0
2018-May-24 04:47N 43°24' E 004°56'0 0.0
2018-May-24 04:28N 43°24' E 004°56'0 0.0
2018-May-24 03:58N 43°24' E 004°55'0 0.0
2018-May-24 03:30N 43°24' E 004°55'0 0.0
2018-May-24 03:00N 43°24' E 004°55'0 0.0
2018-May-24 02:30N 43°24' E 004°55'0 0.0
2018-May-24 02:00N 43°24' E 004°55'0 0.0
2018-May-24 01:30N 43°24' E 004°55'0 0.0
2018-May-24 00:59N 43°24' E 004°55'0 0.0
2018-May-24 00:29N 43°24' E 004°55'0 0.0
2018-May-23 23:59N 43°24' E 004°55'0 0.0
2018-May-23 23:29N 43°24' E 004°55'0 0.1
2018-May-23 23:00N 43°24' E 004°56'0 0.0
2018-May-23 22:29N 43°24' E 004°56'0 0.0
2018-May-23 22:00N 43°24' E 004°56'0 0.0
2018-May-23 21:29N 43°24' E 004°56'0 0.0
2018-May-23 20:58N 43°24' E 004°56'0 0.1
2018-May-23 20:30N 43°24' E 004°56'0 0.0
2018-May-23 19:57N 43°24' E 004°56'0 0.1
2018-May-23 19:30N 43°24' E 004°56'0 0.0
2018-May-23 18:57N 43°24' E 004°56'0 0.0
2018-May-23 18:30N 43°24' E 004°56'0 0.1
2018-May-23 18:00N 43°24' E 004°56'0 0.0
2018-May-23 17:30N 43°24' E 004°56'0 0.0
2018-May-23 17:00N 43°24' E 004°56'0 0.0
2018-May-23 16:26N 43°24' E 004°56'0 0.0
2018-May-23 15:59N 43°24' E 004°56'0 0.1
2018-May-23 15:29N 43°24' E 004°56'0 0.1
2018-May-23 14:59N 43°24' E 004°56'0 0.0
2018-May-23 14:29N 43°24' E 004°56'0 0.0
2018-May-23 13:58N 43°24' E 004°56'0 0.0
2018-May-23 13:28N 43°24' E 004°56'0 0.0
2018-May-23 13:00N 43°24' E 004°56'0 0.0
2018-May-23 12:28N 43°24' E 004°56'0 0.0
2018-May-23 11:58N 43°24' E 004°56'0 0.0
2018-May-23 11:30N 43°24' E 004°56'0 0.0
2018-May-23 11:00N 43°24' E 004°56'0 0.0
2018-May-23 10:30N 43°24' E 004°56'0 0.0
2018-May-23 10:01N 43°24' E 004°56'0 0.0
2018-May-23 09:30N 43°24' E 004°56'0 0.0
2018-May-23 08:54N 43°24' E 004°55'0 0.0
2018-May-23 08:30N 43°24' E 004°55'0 0.0
2018-May-23 08:00N 43°24' E 004°55'0 0.0
2018-May-23 07:30N 43°24' E 004°55'0 0.0
2018-May-23 07:00N 43°24' E 004°55'0 0.0
2018-May-23 06:30N 43°24' E 004°55'0 0.0
2018-May-23 05:57N 43°24' E 004°55'0 0.0
2018-May-23 05:30N 43°24' E 004°55'0 0.0
2018-May-23 05:00N 43°24' E 004°55'0 0.0
2018-May-23 04:30N 43°24' E 004°55'0 0.0
2018-May-23 04:00N 43°24' E 004°55'0 0.0
2018-May-23 03:30N 43°24' E 004°55'0 0.1
2018-May-23 02:57N 43°24' E 004°55'0 0.1
2018-May-23 02:30N 43°24' E 004°55'0 0.0
2018-May-23 02:00N 43°24' E 004°55'0 0.0
2018-May-23 01:24N 43°24' E 004°55'0 0.0
2018-May-23 01:00N 43°24' E 004°55'0 0.0
2018-May-23 00:27N 43°24' E 004°55'0 0.0
2018-May-23 00:00N 43°24' E 004°55'0 0.0
2018-May-22 23:30N 43°24' E 004°55'0 0.0
2018-May-22 23:00N 43°24' E 004°55'0 0.0
2018-May-22 22:30N 43°24' E 004°55'0 0.0
2018-May-22 22:00N 43°24' E 004°55'0 0.1
2018-May-22 21:27N 43°24' E 004°56'4 8.8
2018-May-22 21:00N 43°21' E 004°58'611.0
2018-May-22 20:30N 43°16' E 005°01'19712.5
2018-May-22 04:49N 43°08' E 009°31'412.0
2018-May-22 04:30N 43°08' E 009°36'712.8
2018-May-22 03:59N 43°01' E 009°39'  
2018-May-19 02:40N 38°44' E 015°25'612.7
2018-May-19 02:13N 38°39' E 015°28'412.4
2018-May-19 01:56N 38°36' E 015°30'612.1
2018-May-19 01:28N 38°31' E 015°34'612.1
2018-May-19 01:00N 38°26' E 015°37'611.9
2018-May-19 00:30N 38°21' E 015°41'5 9.8
2018-May-18 23:59N 38°16' E 015°41'4 8.5
2018-May-18 23:30N 38°14' E 015°37'611.5
2018-May-18 22:59N 38°08' E 015°36'611.2
2018-May-18 22:29N 38°02' E 015°36'611.9
2018-May-18 22:00N 37°56' E 015°36'612.2
2018-May-18 21:29N 37°50' E 015°36'612.5
2018-May-18 20:58N 37°44' E 015°36'612.1
2018-May-18 20:30N 37°38' E 015°36'611.2
2018-May-18 20:00N 37°32' E 015°36'1010.8
2018-May-18 19:07N 37°24' E 015°30'211.6
2018-May-18 18:58N 37°23' E 015°28'  

Dump ship's entire track history